Hayti, South Dakota
Current Conditions -  °F | °C
As of 11:53 PM on Sunday 21 Dec 2014 (Local Time) from KATY Reporting Station
Haze Haze  
Wind Chill: 28°   Ceiling: 200
Heat Index: 36°   Visibility: 6mi
Dew Point: 35°   Wind: 13mph
Humidity: 97%   Direction: 160°SSE
Pressure: 29.47"   Gusts: NA
Location:  44.66°N, 97.21°W
Report Text: KATY 220553Z AUTO 16011KT 6SM BR OVC002 02/02 A2947 RMK AO2 SLP993 T00220017 10022 20011 400221022 58008
Loading
Personal Weather Stations






























Interactive Weather Map New forecast layout! Learn more

10-Day Weather Forecast

Advertisements
Track Severe Weather on mobile